createdAt,value
2022-10-05T00:00:42.423Z,10.96
2022-10-05T00:01:42.433Z,10.95
2022-10-05T00:02:42.426Z,10.96
2022-10-05T00:03:42.390Z,10.96
2022-10-05T00:04:42.425Z,10.94
2022-10-05T00:05:42.357Z,10.92
2022-10-05T00:06:42.495Z,10.92
2022-10-05T00:07:42.337Z,10.89
2022-10-05T00:08:42.316Z,10.91
2022-10-05T00:09:42.317Z,10.89
2022-10-05T00:10:42.299Z,10.86
2022-10-05T00:11:42.277Z,10.84
2022-10-05T00:12:42.264Z,10.86
2022-10-05T00:13:42.289Z,10.84
2022-10-05T00:14:42.276Z,10.83
2022-10-05T00:15:42.216Z,10.81
2022-10-05T00:16:42.250Z,10.80
2022-10-05T00:17:42.194Z,10.80
2022-10-05T00:18:42.193Z,10.81
2022-10-05T00:19:42.187Z,10.80
2022-10-05T00:20:42.176Z,10.77
2022-10-05T00:21:42.167Z,10.78
2022-10-05T00:22:42.153Z,10.77
2022-10-05T00:23:42.137Z,10.76
2022-10-05T00:24:42.118Z,10.76
2022-10-05T00:25:42.114Z,10.76
2022-10-05T00:26:42.085Z,10.73
2022-10-05T00:27:42.066Z,10.70
2022-10-05T00:28:42.056Z,10.70
2022-10-05T00:29:42.056Z,10.70
2022-10-05T00:30:42.047Z,10.68
2022-10-05T00:31:42.112Z,10.65
2022-10-05T00:32:42.050Z,10.63
2022-10-05T00:33:41.994Z,10.62
2022-10-05T00:34:41.987Z,10.62
2022-10-05T00:35:41.987Z,10.60
2022-10-05T00:36:41.967Z,10.59
2022-10-05T00:37:41.940Z,10.59
2022-10-05T00:38:41.952Z,10.59
2022-10-05T00:39:41.919Z,10.56
2022-10-05T00:40:41.919Z,10.53
2022-10-05T00:41:41.909Z,10.51
2022-10-05T00:42:41.867Z,10.52
2022-10-05T00:43:41.859Z,10.52
2022-10-05T00:44:41.853Z,10.52
2022-10-05T00:45:41.887Z,10.51
2022-10-05T00:46:41.827Z,10.51
2022-10-05T00:47:41.817Z,10.46
2022-10-05T00:48:41.831Z,10.43
2022-10-05T00:49:41.787Z,10.43
2022-10-05T00:50:41.777Z,10.40
2022-10-05T00:51:41.785Z,10.37
2022-10-05T00:52:41.774Z,10.37
2022-10-05T00:53:41.760Z,10.36
2022-10-05T00:54:41.736Z,10.36
2022-10-05T00:55:41.726Z,10.34
2022-10-05T00:56:41.731Z,10.34
2022-10-05T00:57:41.691Z,10.36
2022-10-05T00:58:41.747Z,10.34
2022-10-05T00:59:41.657Z,10.34
2022-10-05T01:00:41.649Z,10.34
2022-10-05T01:01:41.665Z,10.36
2022-10-05T01:02:41.679Z,10.36
2022-10-05T01:03:41.609Z,10.33
2022-10-05T01:04:41.598Z,10.33
2022-10-05T01:05:41.604Z,10.32
2022-10-05T01:06:41.587Z,10.30
2022-10-05T01:07:41.569Z,10.30
2022-10-05T01:08:41.544Z,10.30
2022-10-05T01:09:41.526Z,10.30
2022-10-05T01:10:41.558Z,10.28
2022-10-05T01:11:41.497Z,10.28
2022-10-05T01:12:41.515Z,10.26
2022-10-05T01:13:41.506Z,10.26
2022-10-05T01:14:41.479Z,10.26
2022-10-05T01:15:41.461Z,10.26
2022-10-05T01:16:41.542Z,10.26
2022-10-05T01:17:41.487Z,10.26
2022-10-05T01:18:48.451Z,10.26
2022-10-05T01:19:41.401Z,10.26
2022-10-05T01:20:41.380Z,10.25
2022-10-05T01:21:41.362Z,10.25
2022-10-05T01:22:41.363Z,10.24
2022-10-05T01:23:41.550Z,10.24
2022-10-05T01:24:41.330Z,10.22
2022-10-05T01:25:41.389Z,10.24
2022-10-05T01:26:41.310Z,10.25
2022-10-05T01:27:41.289Z,10.28
2022-10-05T01:28:41.289Z,10.26
2022-10-05T01:29:41.291Z,10.32
2022-10-05T01:30:41.271Z,10.33
2022-10-05T01:31:41.328Z,10.34
2022-10-05T01:32:41.241Z,10.32
2022-10-05T01:33:41.232Z,10.33
2022-10-05T01:34:41.224Z,10.33
2022-10-05T01:35:41.203Z,10.32
2022-10-05T01:36:41.181Z,10.32
2022-10-05T01:37:41.161Z,10.32
2022-10-05T01:38:41.149Z,10.28
2022-10-05T01:39:41.151Z,10.30
2022-10-05T01:40:41.131Z,10.28
2022-10-05T01:41:41.121Z,10.26
2022-10-05T01:42:41.110Z,10.26
2022-10-05T01:43:41.080Z,10.25
2022-10-05T01:44:41.099Z,10.22
2022-10-05T01:45:41.157Z,10.22
2022-10-05T01:46:41.061Z,10.22
2022-10-05T01:47:41.041Z,10.22
2022-10-05T01:48:41.051Z,10.22
2022-10-05T01:49:41.021Z,10.25
2022-10-05T01:50:41.004Z,10.24
2022-10-05T01:51:41.061Z,10.24
2022-10-05T01:52:40.970Z,10.22
2022-10-05T01:53:40.969Z,10.22
2022-10-05T01:54:40.954Z,10.21
2022-10-05T01:55:40.940Z,10.19
2022-10-05T01:56:40.920Z,10.19
2022-10-05T01:57:40.925Z,10.15
2022-10-05T01:58:40.904Z,10.14
2022-10-05T01:59:40.909Z,10.15
2022-10-05T02:00:40.923Z,10.14
2022-10-05T02:01:40.872Z,10.14
2022-10-05T02:02:40.905Z,10.10
2022-10-05T02:03:40.843Z,10.09
2022-10-05T02:05:01.365Z,10.07
2022-10-05T02:05:41.812Z,10.06
2022-10-05T02:06:40.834Z,10.03
2022-10-05T02:07:40.790Z,10.01
2022-10-05T02:08:40.798Z,10.03
2022-10-05T02:09:40.761Z,10.03
2022-10-05T02:10:40.742Z,10.04
2022-10-05T02:11:40.743Z,10.01
2022-10-05T02:12:40.720Z,10.01
2022-10-05T02:13:40.721Z,9.99
2022-10-05T02:14:40.692Z,9.96
2022-10-05T02:15:40.737Z,9.96
2022-10-05T02:16:40.700Z,9.96
2022-10-05T02:17:40.666Z,9.96
2022-10-05T02:18:40.653Z,9.96
2022-10-05T02:19:40.633Z,9.93
2022-10-05T02:20:40.623Z,9.88
2022-10-05T02:21:40.615Z,9.89
2022-10-05T02:22:40.592Z,9.89
2022-10-05T02:23:40.605Z,9.88
2022-10-05T02:24:40.561Z,9.86
2022-10-05T02:25:40.549Z,9.83
2022-10-05T02:26:40.532Z,9.83
2022-10-05T02:27:40.584Z,9.79
2022-10-05T02:28:40.549Z,9.79
2022-10-05T02:29:40.511Z,9.76
2022-10-05T02:30:40.483Z,9.75
2022-10-05T02:31:40.570Z,9.73
2022-10-05T02:32:40.473Z,9.71
2022-10-05T02:33:40.465Z,9.68
2022-10-05T02:34:40.463Z,9.66
2022-10-05T02:35:40.433Z,9.63
2022-10-05T02:36:40.434Z,9.61
2022-10-05T02:37:40.404Z,9.60
2022-10-05T02:38:40.401Z,9.58
2022-10-05T02:39:40.387Z,9.56
2022-10-05T02:40:40.369Z,9.56
2022-10-05T02:41:40.341Z,9.53
2022-10-05T02:42:40.323Z,9.53
2022-10-05T02:43:40.331Z,9.52
2022-10-05T02:44:40.303Z,9.49
2022-10-05T02:45:40.333Z,9.49
2022-10-05T02:46:40.272Z,9.50
2022-10-05T02:47:40.263Z,9.50
2022-10-05T02:48:40.263Z,9.53
2022-10-05T02:49:40.265Z,9.52
2022-10-05T02:50:40.233Z,9.50
2022-10-05T02:51:40.226Z,9.50
2022-10-05T02:52:40.212Z,9.49
2022-10-05T02:53:40.192Z,9.48
2022-10-05T02:54:40.171Z,9.48
2022-10-05T02:55:40.173Z,9.46
2022-10-05T02:56:40.156Z,9.45
2022-10-05T02:57:40.144Z,9.42
2022-10-05T02:58:40.125Z,9.40
2022-10-05T02:59:40.117Z,9.35
2022-10-05T03:00:40.119Z,9.31
2022-10-05T03:01:40.158Z,9.28
2022-10-05T03:02:40.074Z,9.30
2022-10-05T03:03:40.073Z,9.31
2022-10-05T03:04:40.113Z,9.28
2022-10-05T03:05:40.052Z,9.28
2022-10-05T03:06:40.024Z,9.28
2022-10-05T03:07:40.022Z,9.30
2022-10-05T03:08:39.993Z,9.28
2022-10-05T03:09:39.980Z,9.27
2022-10-05T03:10:39.977Z,9.25
2022-10-05T03:11:39.974Z,9.20
2022-10-05T03:12:39.935Z,9.20
2022-10-05T03:13:39.932Z,9.18
2022-10-05T03:14:39.913Z,9.18
2022-10-05T03:15:39.955Z,9.16
2022-10-05T03:16:39.886Z,9.13
2022-10-05T03:17:39.894Z,9.15
2022-10-05T03:18:39.864Z,9.18
2022-10-05T03:19:39.855Z,9.20
2022-10-05T03:20:39.841Z,9.23
2022-10-05T03:21:39.855Z,9.27
2022-10-05T03:22:39.840Z,9.27
2022-10-05T03:23:39.812Z,9.30
2022-10-05T03:24:39.777Z,9.31
2022-10-05T03:25:39.770Z,9.34
2022-10-05T03:26:39.753Z,9.34
2022-10-05T03:27:39.753Z,9.35
2022-10-05T03:28:39.798Z,9.38
2022-10-05T03:29:39.756Z,9.40
2022-10-05T03:30:39.724Z,9.43
2022-10-05T03:31:39.800Z,9.43
2022-10-05T03:32:39.697Z,9.43
2022-10-05T03:33:39.694Z,9.48
2022-10-05T03:34:39.662Z,9.49
2022-10-05T03:35:39.657Z,9.52
2022-10-05T03:36:39.633Z,9.53
2022-10-05T03:37:39.627Z,9.57
2022-10-05T03:38:39.603Z,9.58
2022-10-05T03:39:39.643Z,9.61
2022-10-05T03:40:39.572Z,9.64
2022-10-05T03:41:39.574Z,9.66
2022-10-05T03:42:39.557Z,9.67
2022-10-05T03:43:39.538Z,9.67
2022-10-05T03:44:39.535Z,9.67
2022-10-05T03:45:39.535Z,9.67
2022-10-05T03:46:39.546Z,9.68
2022-10-05T03:47:39.547Z,9.70
2022-10-05T03:48:39.484Z,9.68
2022-10-05T03:49:39.516Z,9.71
2022-10-05T03:50:39.455Z,9.70
2022-10-05T03:51:39.450Z,9.71
2022-10-05T03:52:39.422Z,9.68
2022-10-05T03:53:39.422Z,9.70
2022-10-05T03:54:39.415Z,9.70
2022-10-05T03:55:39.387Z,9.68
2022-10-05T03:56:39.376Z,9.68
2022-10-05T03:57:39.386Z,9.70
2022-10-05T03:58:39.345Z,9.70
2022-10-05T03:59:39.359Z,9.71
2022-10-05T04:00:39.325Z,9.73
2022-10-05T04:01:39.343Z,9.76
2022-10-05T04:02:39.342Z,9.78
2022-10-05T04:03:39.284Z,9.78
2022-10-05T04:04:39.274Z,9.78
2022-10-05T04:05:39.254Z,9.78
2022-10-05T04:06:39.274Z,9.79
2022-10-05T04:07:39.225Z,9.79
2022-10-05T04:08:40.032Z,9.79
2022-10-05T04:09:39.215Z,9.79
2022-10-05T04:10:39.206Z,9.81
2022-10-05T04:11:39.187Z,9.81
2022-10-05T04:12:39.174Z,9.79
2022-10-05T04:13:39.170Z,9.81
2022-10-05T04:14:39.168Z,9.82
2022-10-05T04:15:39.225Z,9.81
2022-10-05T04:16:39.135Z,9.82
2022-10-05T04:17:39.131Z,9.83
2022-10-05T04:18:39.083Z,9.82
2022-10-05T04:19:39.075Z,9.82
2022-10-05T04:20:39.074Z,9.82
2022-10-05T04:21:39.046Z,9.81
2022-10-05T04:22:39.033Z,9.81
2022-10-05T04:23:39.031Z,9.81
2022-10-05T04:24:39.017Z,9.79
2022-10-05T04:25:39.007Z,9.79
2022-10-05T04:26:38.997Z,9.78
2022-10-05T04:27:38.987Z,9.81
2022-10-05T04:28:38.993Z,9.79
2022-10-05T04:29:38.955Z,9.79
2022-10-05T04:30:38.936Z,9.79
2022-10-05T04:31:38.982Z,9.79
2022-10-05T04:32:38.915Z,9.78
2022-10-05T04:33:38.895Z,9.78
2022-10-05T04:34:38.885Z,9.78
2022-10-05T04:35:38.876Z,9.79
2022-10-05T04:36:38.855Z,9.79
2022-10-05T04:37:42.105Z,9.79
2022-10-05T04:38:39.836Z,9.78
2022-10-05T04:39:38.816Z,9.79
2022-10-05T04:40:38.808Z,9.81
2022-10-05T04:41:38.800Z,9.79
2022-10-05T04:42:38.785Z,9.79
2022-10-05T04:43:38.829Z,9.81
2022-10-05T04:44:38.757Z,9.79
2022-10-05T04:45:38.755Z,9.82
2022-10-05T04:46:38.779Z,9.82
2022-10-05T04:47:38.731Z,9.83
2022-10-05T04:48:38.729Z,9.85
2022-10-05T04:49:38.700Z,9.83
2022-10-05T04:50:38.684Z,9.82
2022-10-05T04:51:38.695Z,9.85
2022-10-05T04:52:38.646Z,9.86
2022-10-05T04:53:38.648Z,9.86
2022-10-05T04:54:38.635Z,9.88
2022-10-05T04:55:38.615Z,9.88
2022-10-05T04:56:38.599Z,9.86
2022-10-05T04:57:38.597Z,9.88
2022-10-05T04:58:42.234Z,9.88
2022-10-05T04:59:38.591Z,9.86
2022-10-05T05:00:38.598Z,9.89
2022-10-05T05:01:38.538Z,9.86
2022-10-05T05:02:38.547Z,9.85
2022-10-05T05:03:38.575Z,9.86
2022-10-05T05:04:38.511Z,9.85
2022-10-05T05:05:53.087Z,9.85
2022-10-05T05:06:39.480Z,9.83
2022-10-05T05:07:38.478Z,9.83
2022-10-05T05:08:38.456Z,9.86
2022-10-05T05:09:38.447Z,9.85
2022-10-05T05:10:38.438Z,9.79
2022-10-05T05:11:38.420Z,9.79
2022-10-05T05:12:38.388Z,9.82
2022-10-05T05:13:38.387Z,9.81
2022-10-05T05:14:38.366Z,9.81
2022-10-05T05:15:38.355Z,9.81
2022-10-05T05:16:38.360Z,9.79
2022-10-05T05:17:38.326Z,9.79
2022-10-05T05:18:38.317Z,9.78
2022-10-05T05:19:38.306Z,9.78
2022-10-05T05:20:38.288Z,9.75
2022-10-05T05:21:38.308Z,9.76
2022-10-05T05:22:38.269Z,9.78
2022-10-05T05:23:38.445Z,9.81
2022-10-05T05:24:38.249Z,9.83
2022-10-05T05:25:38.238Z,9.86
2022-10-05T05:26:39.085Z,9.88
2022-10-05T05:27:38.218Z,9.89
2022-10-05T05:28:38.206Z,9.91
2022-10-05T05:29:38.246Z,9.93
2022-10-05T05:30:38.158Z,9.91
2022-10-05T05:31:38.234Z,9.89
2022-10-05T05:32:38.191Z,9.86
2022-10-05T05:33:38.127Z,9.85
2022-10-05T05:34:38.116Z,9.83
2022-10-05T05:35:38.106Z,9.85
2022-10-05T05:36:38.089Z,9.88
2022-10-05T05:37:38.079Z,9.88
2022-10-05T05:38:38.079Z,9.89
2022-10-05T05:39:38.056Z,9.91
2022-10-05T05:40:38.040Z,9.89
2022-10-05T05:41:38.020Z,9.94
2022-10-05T05:42:38.009Z,9.96
2022-10-05T05:43:38.012Z,9.97
2022-10-05T05:44:39.090Z,9.97
2022-10-05T05:45:37.978Z,9.99
2022-10-05T05:47:02.458Z,10.01
2022-10-05T05:47:38.987Z,10.01
2022-10-05T05:48:37.937Z,10.01
2022-10-05T05:49:37.936Z,10.03
2022-10-05T05:50:37.907Z,10.04
2022-10-05T05:51:37.898Z,10.06
2022-10-05T05:52:37.880Z,10.07
2022-10-05T05:53:37.890Z,10.07
2022-10-05T05:54:37.882Z,10.09
2022-10-05T05:55:37.909Z,10.12
2022-10-05T05:56:37.862Z,10.12
2022-10-05T05:57:37.898Z,10.17
2022-10-05T05:58:37.869Z,10.19
2022-10-05T05:59:37.790Z,10.21
2022-10-05T06:00:37.778Z,10.24
2022-10-05T06:01:42.062Z,10.25
2022-10-05T06:02:38.883Z,10.28
2022-10-05T06:03:37.739Z,10.33
2022-10-05T06:04:37.751Z,10.37
2022-10-05T06:05:37.721Z,10.42
2022-10-05T06:06:37.718Z,10.44
2022-10-05T06:07:37.700Z,10.47
2022-10-05T06:08:37.679Z,10.52
2022-10-05T06:09:37.658Z,10.58
2022-10-05T06:10:37.684Z,10.56
2022-10-05T06:11:37.747Z,10.60
2022-10-05T06:12:37.869Z,10.63
2022-10-05T06:13:37.660Z,10.65
2022-10-05T06:14:37.612Z,10.66
2022-10-05T06:15:37.579Z,10.68
2022-10-05T06:16:37.633Z,10.70
2022-10-05T06:17:37.570Z,10.73
2022-10-05T06:18:37.566Z,10.77
2022-10-05T06:19:37.551Z,10.78
2022-10-05T06:20:37.540Z,10.83
2022-10-05T06:21:37.522Z,10.84
2022-10-05T06:22:37.501Z,10.88
2022-10-05T06:23:37.492Z,10.89
2022-10-05T06:24:37.480Z,10.92
2022-10-05T06:25:37.458Z,10.94
2022-10-05T06:26:37.469Z,10.95
2022-10-05T06:27:37.431Z,10.98
2022-10-05T06:28:37.464Z,11.02
2022-10-05T06:29:37.411Z,11.03
2022-10-05T06:30:37.391Z,11.07
2022-10-05T06:31:37.443Z,11.07
2022-10-05T06:32:37.372Z,11.10
2022-10-05T06:33:37.361Z,11.14
2022-10-05T06:34:37.349Z,11.16
2022-10-05T06:35:37.342Z,11.20
2022-10-05T06:36:37.321Z,11.21
2022-10-05T06:37:37.301Z,11.27
2022-10-05T06:38:37.294Z,11.31
2022-10-05T06:39:37.279Z,11.35
2022-10-05T06:40:37.324Z,11.38
2022-10-05T06:41:37.251Z,11.41
2022-10-05T06:42:37.243Z,11.39
2022-10-05T06:43:37.262Z,11.36
2022-10-05T06:44:37.227Z,11.41
2022-10-05T06:45:37.227Z,11.46
2022-10-05T06:46:37.210Z,11.52
2022-10-05T06:47:37.185Z,11.54
2022-10-05T06:48:37.186Z,11.57
2022-10-05T06:49:37.151Z,11.59
2022-10-05T06:50:37.152Z,11.59
2022-10-05T06:51:37.136Z,11.64
2022-10-05T06:52:37.113Z,11.70
2022-10-05T06:53:37.093Z,11.74
2022-10-05T06:54:37.084Z,11.77
2022-10-05T06:55:37.066Z,11.78
2022-10-05T06:56:37.061Z,11.82
2022-10-05T06:57:37.053Z,11.78
2022-10-05T06:58:37.030Z,11.83
2022-10-05T06:59:37.011Z,11.86
2022-10-05T07:00:37.016Z,11.87
2022-10-05T07:01:37.050Z,11.89
2022-10-05T07:02:37.071Z,11.93
2022-10-05T07:03:36.963Z,12.01
2022-10-05T07:04:37.350Z,12.04
2022-10-05T07:05:36.965Z,12.06
2022-10-05T07:06:36.934Z,12.06
2022-10-05T07:07:36.913Z,12.09
2022-10-05T07:08:36.911Z,12.15
2022-10-05T07:09:36.901Z,12.12
2022-10-05T07:10:36.872Z,12.15
2022-10-05T07:11:36.878Z,12.19
2022-10-05T07:12:36.853Z,12.23
2022-10-05T07:13:36.842Z,12.24
2022-10-05T07:14:36.843Z,12.21
2022-10-05T07:15:36.825Z,12.24
2022-10-05T07:16:36.901Z,12.26
2022-10-05T07:17:36.793Z,12.30
2022-10-05T07:18:36.784Z,12.31
2022-10-05T07:19:43.861Z,12.31
2022-10-05T07:20:36.771Z,12.33
2022-10-05T07:21:36.743Z,12.33
2022-10-05T07:22:36.729Z,12.34
2022-10-05T07:23:36.711Z,12.34
2022-10-05T07:24:36.751Z,12.37
2022-10-05T07:25:36.702Z,12.41
2022-10-05T07:26:36.701Z,12.45
2022-10-05T07:27:36.704Z,12.44
2022-10-05T07:28:36.732Z,12.45
2022-10-05T07:29:36.652Z,12.52
2022-10-05T07:30:36.657Z,12.59
2022-10-05T07:31:36.661Z,12.57
2022-10-05T07:32:36.703Z,12.59
2022-10-05T07:33:36.623Z,12.56
2022-10-05T07:34:36.581Z,12.63
2022-10-05T07:35:36.561Z,12.67
2022-10-05T07:36:36.592Z,12.69
2022-10-05T07:37:36.542Z,12.67
2022-10-05T07:38:36.543Z,12.67
2022-10-05T07:39:59.086Z,12.71
2022-10-05T07:40:37.511Z,12.75
2022-10-05T07:41:36.501Z,12.77
2022-10-05T07:42:44.588Z,12.71
2022-10-05T07:44:00.437Z,12.75
2022-10-05T07:44:37.454Z,12.84
2022-10-05T07:45:36.476Z,12.85
2022-10-05T07:46:36.432Z,12.92
2022-10-05T07:47:36.435Z,12.99
2022-10-05T07:48:36.407Z,13.03
2022-10-05T07:49:36.424Z,13.12
2022-10-05T07:50:36.376Z,13.21
2022-10-05T07:51:36.370Z,13.27
2022-10-05T07:52:36.354Z,13.30
2022-10-05T07:53:36.342Z,13.38
2022-10-05T07:54:36.320Z,13.46
2022-10-05T07:55:36.313Z,13.56
2022-10-05T07:56:36.292Z,13.65
2022-10-05T07:57:36.302Z,13.71
2022-10-05T07:58:36.275Z,13.73
2022-10-05T07:59:36.268Z,13.74
2022-10-05T08:00:36.245Z,13.76
2022-10-05T08:01:36.258Z,13.84
2022-10-05T08:02:36.259Z,13.88
2022-10-05T08:03:36.205Z,13.91
2022-10-05T08:04:40.821Z,13.99
2022-10-05T08:05:37.198Z,14.06
2022-10-05T08:06:36.166Z,14.12
2022-10-05T08:07:36.143Z,14.19
2022-10-05T08:08:36.203Z,14.27
2022-10-05T08:09:36.125Z,14.27
2022-10-05T08:10:36.141Z,14.27
2022-10-05T08:11:36.106Z,14.27
2022-10-05T08:12:36.087Z,14.29
2022-10-05T08:13:36.087Z,14.27
2022-10-05T08:14:36.075Z,14.32
2022-10-05T08:15:36.110Z,14.35
2022-10-05T08:16:36.043Z,14.43
2022-10-05T08:17:36.022Z,14.54
2022-10-05T08:18:36.021Z,14.56
2022-10-05T08:19:35.994Z,14.60
2022-10-05T08:20:35.986Z,14.67
2022-10-05T08:21:35.964Z,14.53
2022-10-05T08:22:35.979Z,14.52
2022-10-05T08:23:35.958Z,14.56
2022-10-05T08:24:35.938Z,14.47
2022-10-05T08:25:35.916Z,14.50
2022-10-05T08:26:35.908Z,14.60
2022-10-05T08:27:35.900Z,14.67
2022-10-05T08:28:35.924Z,14.65
2022-10-05T08:29:35.886Z,14.74
2022-10-05T08:30:35.857Z,14.83
2022-10-05T08:31:36.001Z,14.88
2022-10-05T08:32:35.825Z,14.80
2022-10-05T08:33:35.806Z,14.83
2022-10-05T08:34:35.809Z,14.78
2022-10-05T08:35:35.785Z,14.81
2022-10-05T08:36:35.776Z,14.80
2022-10-05T08:37:35.757Z,14.71
2022-10-05T08:38:35.770Z,14.74
2022-10-05T08:39:35.748Z,14.80
2022-10-05T08:40:35.730Z,14.81
2022-10-05T08:41:35.720Z,14.86
2022-10-05T08:42:35.698Z,14.83
2022-10-05T08:43:35.690Z,14.90
2022-10-05T08:44:35.711Z,14.93
2022-10-05T08:45:35.662Z,14.86
2022-10-05T08:46:35.702Z,14.83
2022-10-05T08:47:35.625Z,14.75
2022-10-05T08:48:35.626Z,14.74
2022-10-05T08:49:35.628Z,14.75
2022-10-05T08:50:35.617Z,14.81
2022-10-05T08:51:35.569Z,14.87
2022-10-05T08:52:35.568Z,14.87
2022-10-05T08:53:35.560Z,14.95
2022-10-05T08:54:35.564Z,15.02
2022-10-05T08:55:35.554Z,15.03
2022-10-05T08:56:35.532Z,15.08
2022-10-05T08:57:35.549Z,15.09
2022-10-05T08:58:35.502Z,15.03
2022-10-05T08:59:35.481Z,15.06
2022-10-05T09:00:35.470Z,15.15
2022-10-05T09:01:35.518Z,15.19
2022-10-05T09:02:35.460Z,15.15
2022-10-05T09:03:35.469Z,15.23
2022-10-05T09:04:35.408Z,15.30
2022-10-05T09:05:35.404Z,15.38
2022-10-05T09:06:35.440Z,15.46
2022-10-05T09:07:35.360Z,15.57
2022-10-05T09:08:35.461Z,15.60
2022-10-05T09:09:35.337Z,15.67
2022-10-05T09:10:35.333Z,15.74
2022-10-05T09:11:35.331Z,15.78
2022-10-05T09:12:35.321Z,15.84
2022-10-05T09:13:35.311Z,15.88
2022-10-05T09:14:35.361Z,15.84
2022-10-05T09:15:35.322Z,15.89
2022-10-05T09:16:35.258Z,15.88
2022-10-05T09:17:39.205Z,15.96
2022-10-05T09:18:35.292Z,15.93
2022-10-05T09:19:35.213Z,15.99
2022-10-05T09:20:35.212Z,16.04
2022-10-05T09:21:35.193Z,16.01
2022-10-05T09:22:35.173Z,16.12
2022-10-05T09:23:35.224Z,16.16
2022-10-05T09:24:35.163Z,16.25
2022-10-05T09:25:35.150Z,16.22
2022-10-05T09:26:35.123Z,16.20
2022-10-05T09:27:35.114Z,16.27
2022-10-05T09:28:35.156Z,16.31
2022-10-05T09:29:35.093Z,16.26
2022-10-05T09:30:35.073Z,16.18
2022-10-05T09:31:35.067Z,16.25
2022-10-05T09:32:35.092Z,16.30
2022-10-05T09:33:36.521Z,16.30
2022-10-05T09:34:35.045Z,16.23
2022-10-05T09:35:35.017Z,16.26
2022-10-05T09:36:35.024Z,16.26
2022-10-05T09:37:34.984Z,16.25
2022-10-05T09:38:34.992Z,16.33
2022-10-05T09:39:34.955Z,16.38
2022-10-05T09:40:35.024Z,16.40
2022-10-05T09:41:34.938Z,16.34
2022-10-05T09:42:34.924Z,16.33
2022-10-05T09:43:34.922Z,16.37
2022-10-05T09:44:34.914Z,16.35
2022-10-05T09:45:34.884Z,16.37
2022-10-05T09:46:34.906Z,16.38
2022-10-05T09:47:34.871Z,16.38
2022-10-05T09:48:34.844Z,16.42
2022-10-05T09:49:34.824Z,16.41
2022-10-05T09:50:34.866Z,16.49
2022-10-05T09:51:34.823Z,16.49
2022-10-05T09:52:34.806Z,16.52
2022-10-05T09:53:34.787Z,16.53
2022-10-05T09:54:34.775Z,16.63
2022-10-05T09:55:34.788Z,16.73
2022-10-05T09:56:34.977Z,16.77
2022-10-05T09:57:34.749Z,16.77
2022-10-05T09:58:34.731Z,16.78
2022-10-05T09:59:34.706Z,16.70
2022-10-05T10:00:34.695Z,16.77
2022-10-05T10:01:34.876Z,16.74
2022-10-05T10:02:34.729Z,16.77
2022-10-05T10:03:34.714Z,16.80
2022-10-05T10:04:34.636Z,16.81
2022-10-05T10:05:34.629Z,16.81
2022-10-05T10:06:34.629Z,16.81
2022-10-05T10:07:34.689Z,16.88
2022-10-05T10:08:34.637Z,16.85
2022-10-05T10:09:38.513Z,16.92
2022-10-05T10:10:34.608Z,16.93
2022-10-05T10:11:34.559Z,16.92
2022-10-05T10:12:34.559Z,16.88
2022-10-05T10:13:34.527Z,16.83
2022-10-05T10:14:34.508Z,16.80
2022-10-05T10:15:34.530Z,16.77
2022-10-05T10:16:34.498Z,16.68
2022-10-05T10:17:34.466Z,16.60
2022-10-05T10:18:34.489Z,16.58
2022-10-05T10:19:34.449Z,16.53
2022-10-05T10:20:34.427Z,16.55
2022-10-05T10:21:34.431Z,16.53
2022-10-05T10:22:34.429Z,16.53
2022-10-05T10:23:34.411Z,16.50
2022-10-05T10:24:34.381Z,16.45
2022-10-05T10:25:34.372Z,16.49
2022-10-05T10:26:34.361Z,16.45
2022-10-05T10:27:34.350Z,16.50
2022-10-05T10:28:34.403Z,16.50
2022-10-05T10:29:34.332Z,16.42
2022-10-05T10:30:36.438Z,16.44
2022-10-05T10:31:34.291Z,16.45
2022-10-05T10:32:34.278Z,16.48
2022-10-05T10:33:34.267Z,16.52
2022-10-05T10:34:34.259Z,16.52
2022-10-05T10:35:34.266Z,16.52
2022-10-05T10:36:34.254Z,16.59
2022-10-05T10:37:34.222Z,16.65
2022-10-05T10:38:34.252Z,16.68
2022-10-05T10:39:34.191Z,16.63
2022-10-05T10:40:34.180Z,16.68
2022-10-05T10:41:34.221Z,16.67
2022-10-05T10:42:34.153Z,16.62
2022-10-05T10:43:34.153Z,16.59
2022-10-05T10:44:34.133Z,16.62
2022-10-05T10:45:34.121Z,16.62
2022-10-05T10:46:34.190Z,16.65
2022-10-05T10:47:34.090Z,16.63
2022-10-05T10:48:34.082Z,16.65
2022-10-05T10:49:34.062Z,16.71
2022-10-05T10:50:34.053Z,16.71
2022-10-05T10:51:34.043Z,16.68
2022-10-05T10:52:34.031Z,16.67
2022-10-05T10:53:34.014Z,16.68
2022-10-05T10:54:34.014Z,16.70
2022-10-05T10:55:34.001Z,16.75
2022-10-05T10:56:33.983Z,16.77
2022-10-05T10:57:33.983Z,16.81
2022-10-05T10:58:33.995Z,16.85
2022-10-05T10:59:33.947Z,16.81
2022-10-05T11:00:33.935Z,16.74
2022-10-05T11:01:33.950Z,16.77
2022-10-05T11:02:33.964Z,16.80
2022-10-05T11:03:33.905Z,16.80
2022-10-05T11:04:33.891Z,16.81
2022-10-05T11:05:33.860Z,16.85
2022-10-05T11:06:33.874Z,16.85
2022-10-05T11:07:33.833Z,16.92
2022-10-05T11:08:33.834Z,16.95
2022-10-05T11:09:33.824Z,17.06
2022-10-05T11:10:33.805Z,17.17
2022-10-05T11:11:33.797Z,17.28
2022-10-05T11:12:34.815Z,17.32
2022-10-05T11:13:33.776Z,17.38
2022-10-05T11:14:33.755Z,17.51
2022-10-05T11:15:33.793Z,17.53
2022-10-05T11:16:33.728Z,17.53
2022-10-05T11:17:33.728Z,17.57
2022-10-05T11:18:33.736Z,17.74
2022-10-05T11:19:40.586Z,17.84
2022-10-05T11:20:34.666Z,17.85
2022-10-05T11:21:33.656Z,17.84
2022-10-05T11:22:33.638Z,17.84
2022-10-05T11:23:38.049Z,17.82
2022-10-05T11:24:34.710Z,17.84
2022-10-05T11:25:33.627Z,18.02
2022-10-05T11:26:33.629Z,18.18
2022-10-05T11:27:33.576Z,18.24
2022-10-05T11:28:33.605Z,18.31
2022-10-05T11:29:33.566Z,18.47
2022-10-05T11:30:33.534Z,18.62
2022-10-05T11:31:33.561Z,18.79
2022-10-05T11:32:33.529Z,18.98
2022-10-05T11:33:33.497Z,19.11
2022-10-05T11:34:33.498Z,19.10
2022-10-05T11:35:33.489Z,19.21
2022-10-05T11:36:33.458Z,19.10
2022-10-05T11:37:33.449Z,19.20
2022-10-05T11:38:33.430Z,19.25
2022-10-05T11:39:33.436Z,19.32
2022-10-05T11:40:33.420Z,19.48
2022-10-05T11:41:33.430Z,19.60
2022-10-05T11:42:33.379Z,19.48
2022-10-05T11:43:33.369Z,19.39
2022-10-05T11:44:33.360Z,19.28
2022-10-05T11:45:33.386Z,19.36
2022-10-05T11:46:33.373Z,19.39
2022-10-05T11:47:33.509Z,19.39
2022-10-05T11:48:33.468Z,19.53
2022-10-05T11:49:33.428Z,19.39
2022-10-05T11:50:33.281Z,19.35
2022-10-05T11:51:33.301Z,19.29
2022-10-05T11:52:33.262Z,19.18
2022-10-05T11:53:33.240Z,19.13
2022-10-05T11:54:52.174Z,19.10
2022-10-05T11:55:34.223Z,19.24
2022-10-05T11:56:33.218Z,19.46
2022-10-05T11:57:33.202Z,19.54
2022-10-05T11:58:33.420Z,19.42
2022-10-05T11:59:33.160Z,19.39
2022-10-05T12:00:33.152Z,19.39
2022-10-05T12:01:33.141Z,19.35
2022-10-05T12:02:33.169Z,19.24
2022-10-05T12:03:33.922Z,19.17
2022-10-05T12:04:33.113Z,19.10
2022-10-05T12:05:33.082Z,19.25
2022-10-05T12:06:33.073Z,19.42
2022-10-05T12:07:33.063Z,19.48
2022-10-05T12:08:33.083Z,19.35
2022-10-05T12:09:33.044Z,19.25
2022-10-05T12:10:33.024Z,19.20
2022-10-05T12:11:33.031Z,19.23
2022-10-05T12:12:33.004Z,19.31
2022-10-05T12:13:33.504Z,19.21
2022-10-05T12:14:32.981Z,19.18
2022-10-05T12:15:32.963Z,19.14
2022-10-05T12:16:32.931Z,19.17
2022-10-05T12:17:32.963Z,19.20
2022-10-05T12:18:32.912Z,19.18
2022-10-05T12:19:32.952Z,19.23
2022-10-05T12:20:32.887Z,19.11
2022-10-05T12:21:32.891Z,19.02
2022-10-05T12:22:32.877Z,18.99
2022-10-05T12:23:32.871Z,18.91
2022-10-05T12:24:32.846Z,18.86
2022-10-05T12:25:32.845Z,18.91
2022-10-05T12:26:32.813Z,18.92
2022-10-05T12:27:33.012Z,18.91
2022-10-05T12:28:33.410Z,18.92
2022-10-05T12:29:32.795Z,18.97
2022-10-05T12:30:32.783Z,19.05
2022-10-05T12:31:32.872Z,19.17
2022-10-05T12:32:32.737Z,19.24
2022-10-05T12:33:32.728Z,19.43
2022-10-05T12:34:32.708Z,19.65
2022-10-05T12:35:47.431Z,19.80
2022-10-05T12:36:52.461Z,19.98
2022-10-05T12:37:33.679Z,20.09
2022-10-05T12:38:32.647Z,20.16
2022-10-05T12:39:32.638Z,20.00
2022-10-05T12:40:32.627Z,20.13
2022-10-05T12:41:32.960Z,20.28
2022-10-05T12:42:32.596Z,20.35
2022-10-05T12:43:32.586Z,20.49
2022-10-05T12:44:32.567Z,20.58
2022-10-05T12:45:32.640Z,20.62
2022-10-05T12:46:32.650Z,20.61
2022-10-05T12:47:32.579Z,20.51
2022-10-05T12:48:32.538Z,20.51
2022-10-05T12:49:32.521Z,20.58
2022-10-05T12:50:32.502Z,20.51
2022-10-05T12:51:32.491Z,20.50
2022-10-05T12:52:32.473Z,20.35
2022-10-05T12:53:32.481Z,20.41
2022-10-05T12:54:32.448Z,20.27
2022-10-05T12:55:32.428Z,20.25
2022-10-05T12:56:32.419Z,20.28
2022-10-05T12:57:32.408Z,20.38
2022-10-05T12:58:32.408Z,20.56
2022-10-05T12:59:32.380Z,20.71